Fulks Run, VA (22830)

10:35 AM EDT on March 28, 2015 (GMT -0400)
Singers Glen FD | | Change Station
CLOSE
Current Station
Personal Weather Station
Location: Harrisonburg, VA
Elevation: 1621 ft
Nearby Weather Stations

Elev 1621 ft 38.55 °N, 78.92 °W | Updated 9 seconds ago

Partly Cloudy
Partly Cloudy
23.9 °F
Feels Like 10 °F
N
17.0
Wind Variable Wind from NNW
Gusts 21.0 mph

Today
High -- | Low -- °F
--% Chance of Precip.
Yesterday
High -- | Low -- °F
Precip. -- in
7:07 AM 7:35 PM
Waxing Gibbous, 63% visible
Pressure 30.08 in
Visibility 10.0 miles
Clouds Scattered Clouds 6000 ft
Windchill 10 °F
Dew Point 8 °F
Humidity 50%
Rainfall 0.00 in
Snow Depth Not available.
UV 3 out of 12
Pollen 7.10 out of 12
Air Quality Not available.
Flu Activity Not available.
METAR KW99 281415Z AUTO 32015G20KT 10SM SCT060 M03/M16 A3008 RMK AO2 T10291157

More Conditions Fewer Conditions

Pressure 30.08 in
Visibility 10.0 miles
Clouds Scattered Clouds 6000 ft
Windchill 10 °F
Dew Point 8 °F
Humidity 50%
Rainfall 0.00 in
Snow Depth Not available.
UV 3 out of 12
Pollen 7.10 out of 12
Air Quality Not available.
Flu Activity Not available.
METAR KW99 281415Z AUTO 32015G20KT 10SM SCT060 M03/M16 A3008 RMK AO2 T10291157

More Conditions Fewer Conditions

10-Day Weather Forecast

Almanac

Astronomy

Mar. 28, 2015 Rise Set
Actual Time
Civil Twilight
Nautical Twilight
Astronomical Twilight
Moon
Length of Visible Light
Length of Day
Tomorrow will be .
, % of the Moon is Illuminated

Today's Extremes

State Highs State Lows

Community

WunderPhotos

Upload Photos

1,808,986 photos uploaded!

WunderBlogs® & News

Nearby

Air Quality

  Air Quality AQ Index Pollutant
Not available.

Snow Depth

Station Depth Elevation

Earthquake Activity

City Distance Mag. Time & Date
Minimum magnitude displayed is 2.5.

Coastal Water Temperatures

Place Temperature

Stations

Nearby Weather Stations

Station Location Temp. Windchill Dew Point Humidity Wind Precip. Elev Updated Type